createdAt,value
2019-02-17T00:00:06.253Z,40.50
2019-02-17T00:03:13.589Z,19.07
2019-02-17T00:06:19.352Z,23.53
2019-02-17T00:09:25.118Z,20.17
2019-02-17T00:12:30.896Z,19.97
2019-02-17T00:15:36.688Z,16.03
2019-02-17T00:18:42.494Z,14.40
2019-02-17T00:21:48.282Z,13.63
2019-02-17T00:24:54.137Z,14.27
2019-02-17T00:27:59.906Z,13.70
2019-02-17T00:31:05.784Z,13.47
2019-02-17T00:34:13.670Z,14.90
2019-02-17T00:37:19.062Z,18.57
2019-02-17T00:40:24.850Z,22.53
2019-02-17T00:43:30.632Z,23.37
2019-02-17T00:46:36.419Z,26.80
2019-02-17T00:49:42.226Z,21.70
2019-02-17T00:52:47.978Z,26.43
2019-02-17T00:55:53.752Z,23.83
2019-02-17T00:59:09.358Z,23.07
2019-02-17T01:02:07.047Z,21.57
2019-02-17T01:05:12.966Z,20.43
2019-02-17T01:08:18.727Z,22.77
2019-02-17T01:11:24.527Z,21.03
2019-02-17T01:14:30.385Z,21.93
2019-02-17T01:17:36.408Z,21.37
2019-02-17T01:20:42.293Z,21.33
2019-02-17T01:23:48.062Z,21.90
2019-02-17T01:26:53.837Z,18.37
2019-02-17T01:29:59.617Z,19.63
2019-02-17T01:33:05.442Z,20.10
2019-02-17T01:36:11.231Z,19.53
2019-02-17T01:39:16.992Z,18.97
2019-02-17T01:42:22.870Z,19.20
2019-02-17T01:45:28.703Z,17.70
2019-02-17T01:48:34.467Z,17.60
2019-02-17T01:51:40.272Z,16.63
2019-02-17T01:54:46.041Z,17.20
2019-02-17T01:57:51.822Z,17.20
2019-02-17T02:00:57.886Z,17.23
2019-02-17T02:04:03.985Z,17.83
2019-02-17T02:07:09.781Z,17.60
2019-02-17T02:10:15.635Z,16.90
2019-02-17T02:13:21.429Z,18.37
2019-02-17T02:16:27.207Z,17.63
2019-02-17T02:19:32.981Z,17.47
2019-02-17T02:22:38.863Z,15.87
2019-02-17T02:25:44.688Z,17.43
2019-02-17T02:28:50.501Z,15.33
2019-02-17T02:31:56.272Z,16.40
2019-02-17T02:35:02.077Z,15.60
2019-02-17T02:38:07.963Z,16.47
2019-02-17T02:41:13.735Z,15.30
2019-02-17T02:44:19.529Z,15.33
2019-02-17T02:47:25.317Z,16.00
2019-02-17T02:50:31.145Z,15.90
2019-02-17T02:53:36.903Z,17.23
2019-02-17T02:56:42.721Z,17.17
2019-02-17T02:59:52.311Z,14.90
2019-02-17T03:02:56.064Z,14.37
2019-02-17T03:06:20.704Z,14.37
2019-02-17T03:09:26.559Z,14.47
2019-02-17T03:12:32.388Z,14.37
2019-02-17T03:15:38.105Z,14.00
2019-02-17T03:18:43.915Z,14.43
2019-02-17T03:21:49.690Z,15.03
2019-02-17T03:24:56.559Z,14.37
2019-02-17T03:28:02.314Z,14.17
2019-02-17T03:31:08.136Z,16.07
2019-02-17T03:34:13.928Z,13.90
2019-02-17T03:37:19.809Z,14.53
2019-02-17T03:40:25.580Z,15.97
2019-02-17T03:43:31.403Z,16.40
2019-02-17T03:46:37.189Z,14.07
2019-02-17T03:49:42.987Z,14.23
2019-02-17T03:52:48.737Z,14.37
2019-02-17T03:55:54.568Z,14.23
2019-02-17T03:59:00.352Z,15.13
2019-02-17T04:02:06.243Z,14.33
2019-02-17T04:05:12.018Z,15.53
2019-02-17T04:08:18.061Z,15.10
2019-02-17T04:11:23.841Z,15.03
2019-02-17T04:14:29.739Z,13.83
2019-02-17T04:17:35.506Z,15.23
2019-02-17T04:20:41.293Z,14.80
2019-02-17T04:23:48.073Z,15.47
2019-02-17T04:26:53.897Z,15.73
2019-02-17T04:29:59.662Z,15.70
2019-02-17T04:33:05.486Z,15.50
2019-02-17T04:36:11.276Z,15.40
2019-02-17T04:39:17.074Z,16.50
2019-02-17T04:42:22.825Z,16.43
2019-02-17T04:45:28.726Z,15.83
2019-02-17T04:48:34.476Z,15.43
2019-02-17T04:51:40.377Z,16.23
2019-02-17T04:54:46.294Z,16.83
2019-02-17T04:57:52.053Z,16.20
2019-02-17T05:00:57.827Z,15.00
2019-02-17T05:04:03.817Z,16.03
2019-02-17T05:07:09.594Z,15.17
2019-02-17T05:10:15.414Z,16.27
2019-02-17T05:13:21.205Z,14.57
2019-02-17T05:16:27.025Z,16.47
2019-02-17T05:19:32.908Z,16.30
2019-02-17T05:22:39.548Z,17.33
2019-02-17T05:25:45.457Z,18.30
2019-02-17T05:28:51.244Z,18.97
2019-02-17T05:31:57.179Z,19.37
2019-02-17T05:35:02.948Z,18.63
2019-02-17T05:38:09.845Z,17.37
2019-02-17T05:41:15.659Z,18.07
2019-02-17T05:44:21.472Z,18.37
2019-02-17T05:47:27.293Z,17.40
2019-02-17T05:50:33.038Z,18.13
2019-02-17T05:53:38.861Z,16.87
2019-02-17T05:56:44.629Z,17.07
2019-02-17T05:59:50.505Z,16.67
2019-02-17T06:02:56.276Z,16.83
2019-02-17T06:06:02.074Z,18.00
2019-02-17T06:09:07.877Z,19.37
2019-02-17T06:12:13.709Z,22.73
2019-02-17T06:15:19.590Z,23.53
2019-02-17T06:18:25.366Z,23.30
2019-02-17T06:21:31.109Z,23.50
2019-02-17T06:24:36.910Z,24.57
2019-02-17T06:27:42.713Z,21.00
2019-02-17T06:30:48.493Z,19.50
2019-02-17T06:33:54.279Z,17.57
2019-02-17T06:37:00.080Z,17.77
2019-02-17T06:40:06.206Z,16.60
2019-02-17T06:43:12.021Z,18.03
2019-02-17T06:46:21.734Z,20.27
2019-02-17T06:49:27.556Z,18.93
2019-02-17T06:52:33.369Z,20.80
2019-02-17T06:55:53.492Z,23.70
2019-02-17T06:58:59.304Z,23.33
2019-02-17T07:02:05.255Z,22.13
2019-02-17T07:05:35.789Z,21.00
2019-02-17T07:08:41.742Z,21.57
2019-02-17T07:11:47.575Z,19.80
2019-02-17T07:14:53.426Z,19.13
2019-02-17T07:17:59.348Z,19.87
2019-02-17T07:21:05.388Z,17.50
2019-02-17T07:24:11.198Z,18.13
2019-02-17T07:27:16.965Z,18.77
2019-02-17T07:30:22.750Z,17.83
2019-02-17T07:33:28.584Z,19.47
2019-02-17T07:36:34.387Z,18.77
2019-02-17T07:39:40.223Z,19.33
2019-02-17T07:42:46.022Z,17.40
2019-02-17T07:45:54.263Z,19.33
2019-02-17T07:49:00.046Z,18.53
2019-02-17T07:52:05.931Z,19.90
2019-02-17T07:55:11.921Z,21.13
2019-02-17T07:58:17.684Z,21.07
2019-02-17T08:01:23.517Z,22.17
2019-02-17T08:04:29.300Z,23.37
2019-02-17T08:07:35.158Z,20.57
2019-02-17T08:10:40.996Z,20.80
2019-02-17T08:13:46.829Z,21.87
2019-02-17T08:16:52.607Z,21.70
2019-02-17T08:19:58.371Z,22.37
2019-02-17T08:23:04.188Z,22.47
2019-02-17T08:26:09.992Z,22.30
2019-02-17T08:29:15.967Z,21.07
2019-02-17T08:32:21.746Z,19.80
2019-02-17T08:35:27.677Z,20.67
2019-02-17T08:38:36.352Z,19.37
2019-02-17T08:41:42.288Z,20.40
2019-02-17T08:44:49.292Z,21.60
2019-02-17T08:47:55.150Z,19.60
2019-02-17T08:51:00.930Z,20.87
2019-02-17T08:54:06.711Z,20.37
2019-02-17T08:57:12.502Z,19.60
2019-02-17T09:00:18.355Z,20.07
2019-02-17T09:03:24.134Z,18.80
2019-02-17T09:06:29.945Z,19.13
2019-02-17T09:09:35.754Z,19.80
2019-02-17T09:12:41.552Z,19.03
2019-02-17T09:15:47.368Z,18.73
2019-02-17T09:18:53.238Z,18.20
2019-02-17T09:21:59.048Z,22.67
2019-02-17T09:25:05.635Z,20.50
2019-02-17T09:28:11.478Z,20.30
2019-02-17T09:31:17.344Z,19.60
2019-02-17T09:34:23.251Z,22.87
2019-02-17T09:37:29.089Z,21.67
2019-02-17T09:40:34.851Z,21.73
2019-02-17T09:43:40.641Z,20.97
2019-02-17T09:46:46.432Z,20.70
2019-02-17T09:49:52.274Z,19.43
2019-02-17T09:52:58.069Z,20.13
2019-02-17T09:56:04.094Z,19.80
2019-02-17T09:59:09.886Z,18.93
2019-02-17T10:02:15.695Z,19.37
2019-02-17T10:05:21.477Z,19.27
2019-02-17T10:08:28.295Z,19.57
2019-02-17T10:11:34.226Z,19.10
2019-02-17T10:14:40.034Z,20.77
2019-02-17T10:17:45.875Z,19.00
2019-02-17T10:20:51.876Z,18.73
2019-02-17T10:23:57.992Z,18.70
2019-02-17T10:27:04.042Z,19.30
2019-02-17T10:30:11.797Z,16.47
2019-02-17T10:33:17.765Z,16.37
2019-02-17T10:36:23.562Z,16.13
2019-02-17T10:39:29.502Z,23.53
2019-02-17T10:42:35.289Z,18.00
2019-02-17T10:45:42.085Z,14.30
2019-02-17T10:48:47.918Z,15.13
2019-02-17T10:51:53.762Z,14.17
2019-02-17T10:54:59.528Z,13.93
2019-02-17T10:58:05.413Z,15.37
2019-02-17T11:01:11.312Z,15.50
2019-02-17T11:04:17.100Z,13.00
2019-02-17T11:07:22.903Z,12.43
2019-02-17T11:10:28.701Z,22.80
2019-02-17T11:13:34.547Z,12.40
2019-02-17T11:16:40.483Z,10.30
2019-02-17T11:19:46.313Z,9.80
2019-02-17T11:22:52.158Z,8.37
2019-02-17T11:25:57.946Z,8.90
2019-02-17T11:29:04.979Z,8.90
2019-02-17T11:32:10.911Z,9.50
2019-02-17T11:35:17.055Z,8.83
2019-02-17T11:38:22.837Z,26.23
2019-02-17T11:41:28.768Z,9.37
2019-02-17T11:44:34.580Z,9.83
2019-02-17T11:47:40.374Z,16.43
2019-02-17T11:50:46.143Z,11.97
2019-02-17T11:53:51.995Z,16.13
2019-02-17T11:56:57.899Z,10.43
2019-02-17T12:00:03.823Z,10.47
2019-02-17T12:03:09.891Z,10.27
2019-02-17T12:06:15.772Z,9.30
2019-02-17T12:09:21.601Z,10.47
2019-02-17T12:12:27.447Z,10.53
2019-02-17T12:15:33.255Z,9.60
2019-02-17T12:18:41.453Z,9.13
2019-02-17T12:22:11.938Z,10.80
2019-02-17T12:25:24.730Z,9.60
2019-02-17T12:29:01.454Z,9.53
2019-02-17T12:32:07.569Z,10.23
2019-02-17T12:35:14.609Z,10.03
2019-02-17T12:38:20.528Z,13.53
2019-02-17T12:41:26.294Z,9.83
2019-02-17T12:44:32.069Z,9.93
2019-02-17T12:47:38.134Z,10.47
2019-02-17T12:50:43.988Z,9.50
2019-02-17T12:53:49.774Z,8.60
2019-02-17T12:56:55.528Z,8.73
2019-02-17T13:00:01.438Z,8.73
2019-02-17T13:03:07.675Z,10.23
2019-02-17T13:06:16.045Z,8.40
2019-02-17T13:09:21.869Z,8.70
2019-02-17T13:12:27.634Z,9.70
2019-02-17T13:15:33.702Z,9.10
2019-02-17T13:18:42.542Z,8.30
2019-02-17T13:21:50.095Z,8.87
2019-02-17T13:24:55.855Z,8.70
2019-02-17T13:28:01.810Z,9.10
2019-02-17T13:31:07.669Z,9.10
2019-02-17T13:34:13.450Z,9.40
2019-02-17T13:37:19.469Z,9.83
2019-02-17T13:40:25.380Z,9.30
2019-02-17T13:43:31.108Z,9.30
2019-02-17T13:46:36.915Z,9.90
2019-02-17T13:49:42.809Z,9.60
2019-02-17T13:52:48.597Z,8.70
2019-02-17T13:55:54.478Z,9.03
2019-02-17T13:59:00.231Z,9.50
2019-02-17T14:02:06.443Z,10.90
2019-02-17T14:05:15.705Z,8.90
2019-02-17T14:08:21.497Z,9.27
2019-02-17T14:11:27.532Z,10.50
2019-02-17T14:14:33.358Z,8.23
2019-02-17T14:17:39.228Z,8.47
2019-02-17T14:20:45.015Z,7.87
2019-02-17T14:23:50.883Z,8.90
2019-02-17T14:26:58.386Z,8.10
2019-02-17T14:30:09.042Z,8.70
2019-02-17T14:33:14.436Z,9.17
2019-02-17T14:36:20.425Z,8.33
2019-02-17T14:39:29.264Z,12.87
2019-02-17T14:42:35.157Z,11.27
2019-02-17T14:45:40.953Z,9.47
2019-02-17T14:48:46.770Z,8.20
2019-02-17T14:51:52.610Z,8.97
2019-02-17T14:54:58.439Z,9.13
2019-02-17T14:58:05.626Z,9.57
2019-02-17T15:01:11.649Z,9.40
2019-02-17T15:04:17.754Z,8.20
2019-02-17T15:07:23.618Z,8.13
2019-02-17T15:10:29.674Z,7.93
2019-02-17T15:13:35.632Z,8.40
2019-02-17T15:16:42.316Z,8.93
2019-02-17T15:19:48.264Z,9.83
2019-02-17T15:22:54.097Z,10.03
2019-02-17T15:26:03.106Z,10.80
2019-02-17T15:29:10.162Z,13.67
2019-02-17T15:32:17.886Z,13.20
2019-02-17T15:35:24.515Z,17.83
2019-02-17T15:38:31.057Z,21.83
2019-02-17T15:41:37.427Z,18.47
2019-02-17T15:44:43.223Z,16.60
2019-02-17T15:47:49.120Z,17.43
2019-02-17T15:51:05.938Z,18.57
2019-02-17T15:54:02.587Z,21.77
2019-02-17T15:57:08.722Z,22.17
2019-02-17T16:00:15.020Z,22.47
2019-02-17T16:03:20.993Z,22.50
2019-02-17T16:06:26.832Z,21.03
2019-02-17T16:09:35.931Z,21.07
2019-02-17T16:12:43.178Z,20.83
2019-02-17T16:15:49.010Z,19.40
2019-02-17T16:18:57.483Z,20.33
2019-02-17T16:22:04.986Z,23.57
2019-02-17T16:25:17.064Z,24.57
2019-02-17T16:28:22.903Z,33.07
2019-02-17T16:31:28.718Z,34.07
2019-02-17T16:34:38.417Z,34.17
2019-02-17T16:37:42.493Z,37.60
2019-02-17T16:40:48.411Z,40.23
2019-02-17T16:43:54.344Z,36.80
2019-02-17T16:47:00.287Z,36.57
2019-02-17T16:50:07.809Z,33.00
2019-02-17T16:53:13.623Z,35.00
2019-02-17T16:56:20.813Z,35.03
2019-02-17T16:59:26.721Z,69.97
2019-02-17T17:02:32.705Z,42.07
2019-02-17T17:05:39.746Z,41.90
2019-02-17T17:08:45.868Z,76.23
2019-02-17T17:11:51.939Z,68.87
2019-02-17T17:14:57.939Z,46.03
2019-02-17T17:18:04.026Z,56.07
2019-02-17T17:21:09.841Z,40.30
2019-02-17T17:24:15.976Z,35.53
2019-02-17T17:27:21.940Z,58.40
2019-02-17T17:30:27.781Z,47.20
2019-02-17T17:33:33.583Z,39.20
2019-02-17T17:36:41.389Z,51.80
2019-02-17T17:39:47.190Z,99.43
2019-02-17T17:42:55.762Z,58.30
2019-02-17T17:46:01.696Z,61.50
2019-02-17T17:49:07.751Z,76.30
2019-02-17T17:52:13.615Z,73.43
2019-02-17T17:55:19.449Z,47.87
2019-02-17T17:58:25.276Z,51.50
2019-02-17T18:01:31.545Z,155.53
2019-02-17T18:04:37.459Z,101.03
2019-02-17T18:07:43.468Z,82.67
2019-02-17T18:10:49.352Z,92.70
2019-02-17T18:13:55.286Z,99.27
2019-02-17T18:17:01.071Z,98.07
2019-02-17T18:20:07.993Z,92.07
2019-02-17T18:23:16.127Z,94.50
2019-02-17T18:26:25.562Z,91.10
2019-02-17T18:29:32.714Z,93.63
2019-02-17T18:32:39.346Z,89.87
2019-02-17T18:35:46.944Z,95.03
2019-02-17T18:38:54.280Z,93.60
2019-02-17T18:42:00.139Z,95.93
2019-02-17T18:45:06.236Z,96.43
2019-02-17T18:48:12.032Z,80.20
2019-02-17T18:51:17.940Z,79.43
2019-02-17T18:54:23.937Z,75.77
2019-02-17T18:57:29.778Z,77.00
2019-02-17T19:00:35.732Z,70.67
2019-02-17T19:03:41.702Z,76.10
2019-02-17T19:06:47.998Z,71.77
2019-02-17T19:09:53.906Z,63.10
2019-02-17T19:12:59.831Z,56.77
2019-02-17T19:16:05.747Z,61.87
2019-02-17T19:19:11.525Z,64.17
2019-02-17T19:22:17.554Z,57.63
2019-02-17T19:25:23.354Z,45.73
2019-02-17T19:28:29.195Z,39.93
2019-02-17T19:31:35.000Z,35.93
2019-02-17T19:34:41.965Z,35.83
2019-02-17T19:37:47.976Z,35.77
2019-02-17T19:40:53.812Z,40.47
2019-02-17T19:43:59.633Z,44.13
2019-02-17T19:47:05.499Z,74.33
2019-02-17T19:50:12.211Z,88.97
2019-02-17T19:53:17.997Z,91.23
2019-02-17T19:56:26.512Z,92.23
2019-02-17T19:59:32.477Z,86.93
2019-02-17T20:02:56.351Z,83.90
2019-02-17T20:06:03.473Z,83.50
2019-02-17T20:09:18.596Z,78.13
2019-02-17T20:12:24.596Z,76.53
2019-02-17T20:15:34.048Z,52.63
2019-02-17T20:18:40.853Z,42.03
2019-02-17T20:21:46.676Z,49.23
2019-02-17T20:24:52.559Z,58.03
2019-02-17T20:27:58.375Z,54.83
2019-02-17T20:31:06.734Z,52.60
2019-02-17T20:34:14.656Z,56.37
2019-02-17T20:37:21.729Z,72.40
2019-02-17T20:40:27.564Z,59.27
2019-02-17T20:43:33.398Z,52.27
2019-02-17T20:46:39.290Z,54.17
2019-02-17T20:49:45.141Z,55.30
2019-02-17T20:52:51.041Z,55.00
2019-02-17T20:55:56.942Z,52.07
2019-02-17T20:59:02.858Z,51.10
2019-02-17T21:02:09.231Z,45.23
2019-02-17T21:05:15.205Z,44.27
2019-02-17T21:08:20.990Z,36.50
2019-02-17T21:11:26.819Z,34.67
2019-02-17T21:14:32.768Z,34.60
2019-02-17T21:17:39.910Z,76.43
2019-02-17T21:20:45.993Z,31.57
2019-02-17T21:23:51.777Z,27.83
2019-02-17T21:26:57.604Z,49.70
2019-02-17T21:30:03.776Z,29.37
2019-02-17T21:33:11.098Z,26.57
2019-02-17T21:36:23.140Z,26.20
2019-02-17T21:39:24.374Z,26.77
2019-02-17T21:42:30.163Z,26.97
2019-02-17T21:45:36.124Z,28.80
2019-02-17T21:48:42.034Z,25.20
2019-02-17T21:51:47.982Z,26.53
2019-02-17T21:54:53.734Z,29.67
2019-02-17T21:57:59.518Z,28.80
2019-02-17T22:01:05.403Z,29.97
2019-02-17T22:04:11.183Z,32.00
2019-02-17T22:07:16.939Z,38.30
2019-02-17T22:10:22.706Z,30.97
2019-02-17T22:13:28.487Z,29.47
2019-02-17T22:16:34.337Z,28.90
2019-02-17T22:19:40.124Z,33.17
2019-02-17T22:22:46.009Z,29.43
2019-02-17T22:25:51.852Z,30.20
2019-02-17T22:28:57.636Z,34.37
2019-02-17T22:32:03.462Z,39.57
2019-02-17T22:35:09.580Z,42.63
2019-02-17T22:38:15.390Z,33.13
2019-02-17T22:41:21.385Z,41.83
2019-02-17T22:44:27.152Z,35.03
2019-02-17T22:47:32.987Z,33.93
2019-02-17T22:50:38.789Z,30.97
2019-02-17T22:53:44.595Z,32.33
2019-02-17T22:56:50.366Z,32.67
2019-02-17T22:59:56.192Z,35.50
2019-02-17T23:03:01.970Z,34.50
2019-02-17T23:06:07.947Z,35.77
2019-02-17T23:09:14.111Z,34.37
2019-02-17T23:12:20.475Z,32.47
2019-02-17T23:15:26.245Z,31.23
2019-02-17T23:18:32.143Z,32.30
2019-02-17T23:21:37.924Z,32.57
2019-02-17T23:24:43.814Z,31.93
2019-02-17T23:27:49.729Z,31.57
2019-02-17T23:30:55.511Z,30.47
2019-02-17T23:34:01.276Z,31.20
2019-02-17T23:37:07.057Z,33.87
2019-02-17T23:40:13.145Z,31.87
2019-02-17T23:43:19.996Z,30.77
2019-02-17T23:46:25.777Z,32.37
2019-02-17T23:49:32.566Z,33.93
2019-02-17T23:52:38.357Z,33.27
2019-02-17T23:55:44.127Z,33.90
2019-02-17T23:58:49.922Z,33.60
